createdAt,value
2019-02-27T00:02:11.932Z,73.59
2019-02-27T00:04:39.329Z,73.44
2019-02-27T00:07:06.680Z,73.80
2019-02-27T00:09:34.095Z,73.47
2019-02-27T00:12:02.351Z,73.15
2019-02-27T00:17:57.957Z,72.56
2019-02-27T00:20:25.528Z,72.60
2019-02-27T00:22:53.009Z,72.70
2019-02-27T00:25:20.529Z,72.58
2019-02-27T00:27:49.167Z,73.01
2019-02-27T00:30:17.449Z,73.23
2019-02-27T00:32:44.972Z,73.10
2019-02-27T00:35:12.489Z,73.31
2019-02-27T00:37:39.969Z,73.85
2019-02-27T00:40:07.569Z,74.47
2019-02-27T00:42:34.890Z,74.93
2019-02-27T00:51:11.972Z,74.55
2019-02-27T00:58:03.494Z,75.53
2019-02-27T01:00:30.835Z,75.74
2019-02-27T01:19:09.126Z,75.65
2019-02-27T01:22:25.428Z,75.43
2019-02-27T01:37:03.267Z,76.75
2019-02-27T01:47:24.989Z,76.74
2019-02-27T01:56:59.894Z,77.09
2019-02-27T02:03:30.239Z,76.97
2019-02-27T02:06:34.314Z,76.63
2019-02-27T02:10:02.749Z,76.68
2019-02-27T02:13:38.574Z,77.06
2019-02-27T02:20:16.083Z,79.04
2019-02-27T02:22:58.199Z,79.78
2019-02-27T02:26:10.477Z,80.16
2019-02-27T02:29:10.559Z,80.58
2019-02-27T02:31:49.159Z,79.77
2019-02-27T02:35:14.832Z,79.56
2019-02-27T02:38:24.521Z,79.10
2019-02-27T02:41:19.014Z,79.02
2019-02-27T02:44:23.480Z,79.48
2019-02-27T02:47:44.710Z,79.42
2019-02-27T02:51:04.189Z,78.33
2019-02-27T02:54:24.637Z,78.23
2019-02-27T02:57:35.891Z,78.19
2019-02-27T03:00:21.457Z,78.64
2019-02-27T03:03:22.659Z,79.12
2019-02-27T03:06:17.590Z,79.24
2019-02-27T03:09:10.916Z,79.45
2019-02-27T03:12:10.746Z,79.36
2019-02-27T03:15:07.774Z,79.71
2019-02-27T03:18:01.049Z,80.14
2019-02-27T03:21:02.724Z,80.16
2019-02-27T03:24:11.126Z,80.27
2019-02-27T03:27:09.666Z,80.29
2019-02-27T03:30:05.331Z,79.81
2019-02-27T03:33:06.457Z,79.36
2019-02-27T03:36:03.448Z,79.53
2019-02-27T03:39:06.071Z,80.12
2019-02-27T03:41:58.413Z,79.96
2019-02-27T03:44:56.202Z,79.53
2019-02-27T03:47:56.944Z,80.27
2019-02-27T03:51:03.123Z,80.76
2019-02-27T03:54:03.505Z,81.11
2019-02-27T03:57:18.936Z,81.24
2019-02-27T04:00:04.882Z,80.63
2019-02-27T04:03:25.882Z,80.02
2019-02-27T04:06:20.159Z,79.93
2019-02-27T04:09:00.055Z,80.04
2019-02-27T04:11:27.962Z,80.24
2019-02-27T04:14:03.346Z,81.06
2019-02-27T04:16:29.410Z,81.51
2019-02-27T04:18:56.146Z,81.23
2019-02-27T04:21:26.102Z,80.89
2019-02-27T04:23:53.875Z,80.86
2019-02-27T04:26:21.235Z,80.90
2019-02-27T04:28:48.599Z,80.89
2019-02-27T04:31:15.954Z,80.77
2019-02-27T04:33:43.340Z,80.20
2019-02-27T04:36:12.826Z,80.51
2019-02-27T04:38:39.978Z,80.58
2019-02-27T04:41:07.309Z,80.93
2019-02-27T04:43:34.664Z,81.23
2019-02-27T04:46:01.985Z,81.25
2019-02-27T04:48:29.904Z,80.95
2019-02-27T04:50:57.987Z,80.74
2019-02-27T04:53:25.344Z,80.38
2019-02-27T04:55:52.668Z,80.48
2019-02-27T04:58:19.978Z,80.63
2019-02-27T05:00:47.354Z,80.43
2019-02-27T05:03:14.737Z,80.05
2019-02-27T05:05:42.124Z,80.59
2019-02-27T05:08:09.407Z,80.79
2019-02-27T05:10:38.214Z,80.68
2019-02-27T05:13:06.023Z,80.62
2019-02-27T05:15:33.399Z,80.44
2019-02-27T05:18:00.738Z,80.45
2019-02-27T05:20:28.103Z,80.46
2019-02-27T05:23:00.171Z,80.28
2019-02-27T05:25:24.979Z,80.67
2019-02-27T05:27:52.284Z,80.82
2019-02-27T05:30:19.679Z,81.07
2019-02-27T05:32:47.029Z,80.85
2019-02-27T05:35:14.466Z,81.20
2019-02-27T05:37:41.819Z,81.30
2019-02-27T05:40:09.771Z,81.35
2019-02-27T05:42:39.103Z,81.19
2019-02-27T05:45:09.895Z,80.98
2019-02-27T05:47:37.216Z,80.80
2019-02-27T05:50:05.755Z,81.05
2019-02-27T05:52:33.209Z,81.25
2019-02-27T05:55:00.586Z,81.37
2019-02-27T05:57:27.921Z,80.91
2019-02-27T05:59:55.364Z,80.62
2019-02-27T06:02:22.699Z,80.34
2019-02-27T06:04:50.060Z,80.96
2019-02-27T06:07:19.037Z,81.14
2019-02-27T06:09:48.932Z,81.08
2019-02-27T06:12:15.934Z,81.00
2019-02-27T06:14:43.294Z,81.13
2019-02-27T06:17:12.861Z,81.26
2019-02-27T06:19:40.291Z,81.04
2019-02-27T06:22:07.630Z,81.37
2019-02-27T06:24:34.999Z,81.13
2019-02-27T06:27:06.060Z,80.52
2019-02-27T06:29:31.624Z,80.27
2019-02-27T06:31:59.414Z,80.13
2019-02-27T06:34:26.767Z,80.10
2019-02-27T06:36:54.138Z,78.74
2019-02-27T06:39:21.484Z,77.14
2019-02-27T06:41:49.786Z,75.01
2019-02-27T06:44:19.119Z,72.28
2019-02-27T06:46:46.634Z,70.25
2019-02-27T06:49:17.260Z,70.56
2019-02-27T06:51:43.225Z,69.70
2019-02-27T06:54:10.580Z,68.41
2019-02-27T06:56:40.769Z,65.25
2019-02-27T06:59:08.082Z,64.54
2019-02-27T07:01:35.468Z,62.46
2019-02-27T07:04:04.819Z,62.25
2019-02-27T07:06:32.060Z,59.75
2019-02-27T07:08:59.865Z,59.17
2019-02-27T07:11:27.234Z,61.34
2019-02-27T07:13:54.586Z,61.31
2019-02-27T07:16:22.911Z,61.08
2019-02-27T07:18:51.059Z,59.10
2019-02-27T07:21:18.504Z,55.53
2019-02-27T07:23:47.903Z,55.11
2019-02-27T07:26:15.845Z,53.33
2019-02-27T07:28:44.100Z,49.59
2019-02-27T07:31:12.481Z,50.16
2019-02-27T07:33:40.661Z,51.63
2019-02-27T07:36:08.689Z,50.80
2019-02-27T07:38:36.038Z,49.02
2019-02-27T07:41:03.394Z,47.25
2019-02-27T07:43:30.729Z,48.41
2019-02-27T07:45:58.079Z,48.89
2019-02-27T07:48:25.414Z,46.74
2019-02-27T07:50:52.944Z,45.38
2019-02-27T07:53:20.284Z,45.05
2019-02-27T07:55:48.421Z,44.98
2019-02-27T07:58:15.834Z,46.29
2019-02-27T08:00:43.146Z,46.71
2019-02-27T08:03:12.986Z,44.93
2019-02-27T08:05:39.878Z,43.80
2019-02-27T08:08:07.299Z,40.26
2019-02-27T08:10:36.982Z,40.35
2019-02-27T08:13:04.348Z,41.81
2019-02-27T08:15:31.728Z,41.82
2019-02-27T08:17:59.223Z,42.37
2019-02-27T08:20:26.720Z,40.83
2019-02-27T08:22:54.244Z,41.91
2019-02-27T08:25:21.889Z,40.70
2019-02-27T08:27:49.375Z,41.60
2019-02-27T08:30:18.426Z,41.87
2019-02-27T08:32:46.110Z,39.61
2019-02-27T08:35:16.762Z,40.18
2019-02-27T08:37:44.313Z,40.37
2019-02-27T08:40:11.875Z,41.42
2019-02-27T08:42:40.699Z,41.79
2019-02-27T08:45:08.973Z,41.93
2019-02-27T08:47:36.499Z,43.59
2019-02-27T08:50:05.984Z,45.05
2019-02-27T08:52:34.160Z,45.42
2019-02-27T08:55:05.419Z,45.52
2019-02-27T08:57:30.854Z,45.67
2019-02-27T08:59:58.553Z,47.08
2019-02-27T09:02:29.207Z,46.37
2019-02-27T09:04:55.497Z,45.26
2019-02-27T09:10:44.980Z,46.80
2019-02-27T09:16:09.616Z,45.71
2019-02-27T09:18:37.162Z,45.25
2019-02-27T09:21:04.734Z,45.69
2019-02-27T09:23:32.399Z,45.48
2019-02-27T09:26:02.698Z,45.81
2019-02-27T09:28:29.998Z,45.32
2019-02-27T09:31:03.326Z,45.05
2019-02-27T09:33:29.461Z,45.61
2019-02-27T09:35:57.372Z,44.87
2019-02-27T09:38:25.032Z,45.03
2019-02-27T09:40:52.611Z,45.54
2019-02-27T09:43:20.131Z,45.91
2019-02-27T09:45:47.751Z,45.83
2019-02-27T09:48:15.371Z,46.99
2019-02-27T09:50:47.649Z,45.65
2019-02-27T09:53:14.059Z,45.80
2019-02-27T09:55:41.660Z,45.68
2019-02-27T09:58:11.291Z,46.60
2019-02-27T10:00:44.613Z,46.36
2019-02-27T10:03:12.273Z,46.31
2019-02-27T10:05:40.843Z,46.92
2019-02-27T10:08:08.971Z,45.85
2019-02-27T10:10:36.562Z,46.16
2019-02-27T10:13:04.212Z,47.21
2019-02-27T10:15:31.833Z,47.03
2019-02-27T10:17:59.410Z,48.05
2019-02-27T10:20:26.991Z,48.48
2019-02-27T10:22:54.631Z,47.71
2019-02-27T10:25:22.331Z,47.87
2019-02-27T10:27:50.031Z,48.06
2019-02-27T10:30:17.850Z,47.64
2019-02-27T10:32:45.471Z,48.45
2019-02-27T10:35:14.011Z,47.89
2019-02-27T10:37:41.623Z,47.59
2019-02-27T10:40:11.468Z,47.48
2019-02-27T10:42:40.710Z,47.87
2019-02-27T10:45:10.216Z,46.94
2019-02-27T10:47:39.925Z,47.51
2019-02-27T10:50:07.991Z,47.11
2019-02-27T10:52:35.551Z,47.05
2019-02-27T10:55:03.355Z,46.05
2019-02-27T10:57:32.230Z,45.77
2019-02-27T11:00:03.539Z,45.96
2019-02-27T11:02:31.231Z,47.13
2019-02-27T11:04:58.771Z,46.58
2019-02-27T11:07:26.332Z,46.54
2019-02-27T11:09:53.919Z,45.47
2019-02-27T11:12:21.586Z,46.48
2019-02-27T11:14:49.243Z,46.01
2019-02-27T11:17:16.954Z,46.07
2019-02-27T11:19:44.812Z,46.62
2019-02-27T11:23:06.732Z,47.20
2019-02-27T11:25:56.518Z,46.50
2019-02-27T11:28:31.124Z,44.50
2019-02-27T11:31:38.751Z,44.38
2019-02-27T11:34:13.231Z,44.17
2019-02-27T11:36:40.840Z,43.44
2019-02-27T11:39:08.872Z,40.68
2019-02-27T11:41:36.351Z,40.01
2019-02-27T11:44:05.072Z,38.86
2019-02-27T11:46:35.154Z,38.89
2019-02-27T11:49:03.166Z,39.12
2019-02-27T11:51:31.174Z,36.13
2019-02-27T11:53:59.171Z,33.92
2019-02-27T11:56:26.691Z,33.31
2019-02-27T11:58:57.789Z,32.58
2019-02-27T12:01:25.531Z,32.41
2019-02-27T12:03:53.051Z,32.86
2019-02-27T12:06:20.651Z,33.10
2019-02-27T12:08:48.734Z,33.95
2019-02-27T12:11:16.231Z,33.51
2019-02-27T12:13:43.695Z,33.34
2019-02-27T12:16:11.471Z,33.70
2019-02-27T12:19:08.651Z,33.32
2019-02-27T12:21:34.851Z,33.18
2019-02-27T12:35:56.870Z,33.54
2019-02-27T12:38:56.042Z,33.01
2019-02-27T12:43:14.373Z,33.52
2019-02-27T12:55:01.773Z,33.89
2019-02-27T13:02:46.228Z,33.92
2019-02-27T13:12:42.029Z,33.81
2019-02-27T13:15:12.277Z,33.23
2019-02-27T13:18:43.962Z,33.42
2019-02-27T13:21:37.532Z,33.31
2019-02-27T13:24:22.252Z,33.01
2019-02-27T13:30:41.370Z,33.51
2019-02-27T13:36:51.577Z,33.65
2019-02-27T13:43:05.603Z,33.94
2019-02-27T14:14:53.338Z,35.22
2019-02-27T14:18:21.950Z,35.41
2019-02-27T14:21:56.129Z,35.61
2019-02-27T14:32:38.252Z,36.00
2019-02-27T14:36:01.703Z,36.02
2019-02-27T14:39:07.837Z,35.35
2019-02-27T15:02:33.798Z,36.17
2019-02-27T15:05:06.213Z,36.08
2019-02-27T15:07:30.505Z,36.06
2019-02-27T15:09:57.938Z,36.15
2019-02-27T15:12:25.325Z,35.84
2019-02-27T15:14:52.764Z,35.66
2019-02-27T15:17:20.450Z,36.14
2019-02-27T15:19:48.744Z,36.46
2019-02-27T15:22:20.227Z,36.61
2019-02-27T15:24:45.483Z,36.19
2019-02-27T15:27:12.866Z,36.52
2019-02-27T15:29:40.350Z,36.91
2019-02-27T15:32:07.808Z,37.12
2019-02-27T15:34:35.238Z,36.76
2019-02-27T15:37:04.131Z,37.00
2019-02-27T15:39:31.983Z,37.28
2019-02-27T15:41:59.374Z,37.08
2019-02-27T15:44:26.823Z,37.35
2019-02-27T15:46:56.600Z,37.30
2019-02-27T15:49:23.553Z,37.43
2019-02-27T15:51:51.029Z,37.55
2019-02-27T15:54:23.981Z,37.30
2019-02-27T15:56:47.773Z,38.02
2019-02-27T15:59:15.713Z,38.08
2019-02-27T16:01:43.118Z,38.58
2019-02-27T16:04:10.610Z,38.67
2019-02-27T16:06:39.821Z,38.50
2019-02-27T16:09:08.883Z,38.16
2019-02-27T16:11:36.298Z,39.12
2019-02-27T16:14:09.259Z,38.92
2019-02-27T16:16:33.283Z,38.91
2019-02-27T16:19:00.855Z,39.39
2019-02-27T16:21:28.375Z,39.86
2019-02-27T16:23:56.232Z,39.83
2019-02-27T16:26:27.011Z,39.84
2019-02-27T16:28:53.634Z,40.42
2019-02-27T16:31:21.178Z,40.56
2019-02-27T16:33:48.913Z,40.97
2019-02-27T16:36:16.544Z,41.18
2019-02-27T16:38:44.059Z,41.33
2019-02-27T16:41:11.933Z,41.62
2019-02-27T16:43:39.499Z,41.64
2019-02-27T16:46:08.529Z,42.16
2019-02-27T16:48:36.529Z,42.63
2019-02-27T16:51:04.332Z,43.22
2019-02-27T16:53:31.923Z,43.41
2019-02-27T16:55:59.768Z,44.33
2019-02-27T16:58:32.515Z,43.79
2019-02-27T17:00:57.104Z,43.72
2019-02-27T17:03:24.738Z,43.95
2019-02-27T17:05:52.438Z,43.87
2019-02-27T17:08:20.203Z,44.13
2019-02-27T17:10:51.666Z,44.66
2019-02-27T17:13:17.710Z,45.33
2019-02-27T17:15:45.435Z,46.77
2019-02-27T17:18:13.275Z,47.80
2019-02-27T17:20:45.878Z,46.73
2019-02-27T17:23:11.078Z,47.09
2019-02-27T17:25:38.784Z,47.22
2019-02-27T17:28:06.335Z,47.92
2019-02-27T17:30:37.765Z,48.30
2019-02-27T17:33:04.098Z,48.13
2019-02-27T17:35:32.979Z,48.24
2019-02-27T17:38:00.580Z,48.61
2019-02-27T17:40:29.209Z,48.23
2019-02-27T17:42:57.418Z,47.67
2019-02-27T17:45:28.269Z,49.52
2019-02-27T17:47:56.091Z,48.23
2019-02-27T17:50:31.694Z,49.42
2019-02-27T17:52:58.600Z,50.14
2019-02-27T17:55:26.569Z,51.04
2019-02-27T17:57:58.026Z,49.80
2019-02-27T18:00:34.479Z,49.77
2019-02-27T18:03:05.024Z,49.47
2019-02-27T18:05:35.169Z,51.34
2019-02-27T18:08:04.158Z,52.20
2019-02-27T18:10:37.076Z,49.81
2019-02-27T18:13:02.119Z,50.81
2019-02-27T18:15:30.139Z,49.78
2019-02-27T18:17:58.169Z,49.84
2019-02-27T18:20:26.029Z,49.77
2019-02-27T18:22:54.001Z,49.52
2019-02-27T18:25:21.996Z,49.01
2019-02-27T18:27:49.846Z,49.19
2019-02-27T18:30:18.839Z,49.35
2019-02-27T18:33:03.547Z,48.86
2019-02-27T18:36:05.662Z,49.49
2019-02-27T18:38:32.932Z,50.92
2019-02-27T18:41:01.048Z,52.15
2019-02-27T18:43:30.105Z,52.03
2019-02-27T18:45:58.729Z,49.59
2019-02-27T18:48:26.658Z,49.48
2019-02-27T18:50:55.918Z,50.37
2019-02-27T18:53:24.309Z,51.40
2019-02-27T18:55:52.238Z,51.12
2019-02-27T18:58:20.893Z,51.98
2019-02-27T19:00:49.419Z,52.35
2019-02-27T19:03:17.258Z,52.57
2019-02-27T19:05:45.134Z,51.92
2019-02-27T19:08:13.061Z,50.97
2019-02-27T19:10:42.477Z,51.25
2019-02-27T19:13:10.775Z,51.63
2019-02-27T19:15:39.080Z,51.29
2019-02-27T19:18:07.389Z,51.46
2019-02-27T19:20:35.600Z,51.73
2019-02-27T19:23:03.649Z,52.27
2019-02-27T19:25:34.620Z,52.49
2019-02-27T19:28:04.734Z,52.72
2019-02-27T19:30:34.677Z,52.89
2019-02-27T19:33:03.911Z,53.97
2019-02-27T19:35:32.840Z,53.63
2019-02-27T19:38:01.142Z,53.02
2019-02-27T19:40:30.563Z,54.04
2019-02-27T19:43:02.988Z,54.98
2019-02-27T19:45:30.895Z,53.79
2019-02-27T19:48:00.005Z,52.79
2019-02-27T19:50:28.019Z,52.11
2019-02-27T19:52:56.014Z,50.76
2019-02-27T19:55:27.626Z,50.86
2019-02-27T19:57:55.689Z,50.93
2019-02-27T20:00:25.063Z,51.61
2019-02-27T20:02:56.996Z,51.91
2019-02-27T20:05:24.043Z,51.98
2019-02-27T20:07:52.241Z,52.20
2019-02-27T20:10:21.785Z,53.26
2019-02-27T20:12:52.979Z,53.39
2019-02-27T20:15:19.930Z,54.16
2019-02-27T20:17:48.053Z,54.31
2019-02-27T20:20:17.522Z,55.53
2019-02-27T20:22:46.582Z,55.74
2019-02-27T20:25:14.549Z,57.15
2019-02-27T20:27:43.075Z,57.42
2019-02-27T20:30:14.350Z,56.44
2019-02-27T20:32:43.109Z,56.54
2019-02-27T20:35:11.428Z,57.35
2019-02-27T20:37:40.263Z,58.82
2019-02-27T20:40:09.372Z,59.52
2019-02-27T20:42:37.358Z,58.87
2019-02-27T20:45:08.635Z,59.30
2019-02-27T20:47:37.274Z,59.45
2019-02-27T20:50:09.624Z,59.48
2019-02-27T20:52:42.604Z,59.99
2019-02-27T20:55:10.904Z,60.20
2019-02-27T20:57:42.265Z,60.53
2019-02-27T21:00:12.718Z,59.92
2019-02-27T21:02:40.669Z,59.74
2019-02-27T21:05:10.563Z,59.54
2019-02-27T21:07:38.493Z,60.27
2019-02-27T21:10:10.357Z,60.75
2019-02-27T21:12:40.829Z,59.65
2019-02-27T21:15:08.738Z,58.85
2019-02-27T21:17:38.928Z,58.22
2019-02-27T21:20:11.917Z,58.35
2019-02-27T21:22:40.116Z,58.36
2019-02-27T21:25:08.639Z,59.12
2019-02-27T21:27:36.394Z,59.39
2019-02-27T21:30:18.055Z,58.83
2019-02-27T21:32:41.203Z,57.79
2019-02-27T21:35:11.849Z,56.28
2019-02-27T21:37:44.545Z,56.18
2019-02-27T21:40:10.758Z,54.93
2019-02-27T21:42:38.369Z,54.46
2019-02-27T21:45:08.268Z,54.48
2019-02-27T21:47:38.340Z,55.09
2019-02-27T21:50:07.397Z,55.10
2019-02-27T21:52:35.098Z,55.28
2019-02-27T21:55:02.669Z,55.28
2019-02-27T21:57:30.184Z,55.12
2019-02-27T22:00:25.615Z,54.77
2019-02-27T22:03:03.901Z,54.99
2019-02-27T22:10:28.197Z,54.42
2019-02-27T22:12:53.065Z,55.18
2019-02-27T22:15:23.215Z,55.60
2019-02-27T22:17:50.738Z,55.70
2019-02-27T22:20:18.349Z,55.52
2019-02-27T22:22:45.728Z,55.43
2019-02-27T22:25:13.298Z,56.09
2019-02-27T22:27:43.278Z,56.14
2019-02-27T22:30:12.519Z,56.57
2019-02-27T22:32:39.908Z,56.34
2019-02-27T22:35:07.579Z,56.09
2019-02-27T22:37:35.009Z,56.55
2019-02-27T22:40:06.583Z,56.79
2019-02-27T22:42:31.963Z,57.36
2019-02-27T22:45:00.585Z,57.25
2019-02-27T22:47:28.824Z,56.82
2019-02-27T22:49:56.348Z,56.55
2019-02-27T22:52:23.848Z,56.86
2019-02-27T22:54:51.644Z,56.90
2019-02-27T22:57:19.050Z,57.31
2019-02-27T22:59:46.604Z,56.97
2019-02-27T23:02:14.174Z,57.06
2019-02-27T23:04:41.752Z,57.32
2019-02-27T23:07:09.483Z,57.25
2019-02-27T23:09:37.054Z,57.67
2019-02-27T23:12:04.684Z,57.26
2019-02-27T23:14:33.134Z,58.00
2019-02-27T23:17:01.295Z,57.90
2019-02-27T23:19:28.928Z,57.93
2019-02-27T23:21:57.575Z,57.80
2019-02-27T23:24:25.772Z,58.12
2019-02-27T23:26:54.922Z,58.19
2019-02-27T23:29:22.778Z,58.33
2019-02-27T23:31:50.313Z,58.49
2019-02-27T23:34:17.768Z,58.64
2019-02-27T23:36:45.281Z,58.88
2019-02-27T23:39:12.728Z,58.83
2019-02-27T23:41:40.283Z,58.99
2019-02-27T23:44:07.712Z,59.20
2019-02-27T23:46:35.193Z,59.66
2019-02-27T23:49:02.608Z,59.83
2019-02-27T23:51:30.143Z,60.28
2019-02-27T23:53:58.636Z,60.45
2019-02-27T23:56:26.943Z,60.67
2019-02-27T23:58:54.481Z,61.06
